White Sulphur Springs, West Virginia
Current Conditions -  °F | °C
As of 12:35 AM on Friday 28 Nov 2014 (Local Time) from KLWB Reporting Station
Light Snow Light Snow  
Wind Chill: 23°   Ceiling: 2600
Heat Index: 28°   Visibility: 10mi
Dew Point: 21°   Wind: 5mph
Humidity: 73%   Direction: 290°WNW
Pressure: 30.2"   Gusts: NA
Location:  37.8°N, 80.3°W
Report Text: KLWB 280535Z AUTO 29004KT 10SM -SN BKN026 OVC033 M02/M06 A3020 RMK AO2 T10201063
Loading
Personal Weather Stations






























Interactive Weather Map New forecast layout! Learn more

10-Day Weather Forecast

Advertisements
Track Severe Weather on mobile